sensor_id;sensor_type;location;lat;lon;timestamp;pressure;altitude;pressure_sealevel;temperature;humidity
41234;BME280;26968;42.686;23.352;2024-03-08T00:01:09;95277.28;;;6.04;77.79
41234;BME280;26968;42.686;23.352;2024-03-08T00:03:35;95283.72;;;6.08;77.17
41234;BME280;26968;42.686;23.352;2024-03-08T00:06:00;95282.91;;;5.99;76.63
41234;BME280;26968;42.686;23.352;2024-03-08T00:08:26;95281.13;;;5.99;76.44
41234;BME280;26968;42.686;23.352;2024-03-08T00:10:52;95282.91;;;5.99;76.35
41234;BME280;26968;42.686;23.352;2024-03-08T00:13:17;95272.72;;;5.81;75.89
41234;BME280;26968;42.686;23.352;2024-03-08T00:15:43;95285.06;;;5.78;76.76
41234;BME280;26968;42.686;23.352;2024-03-08T00:18:08;95291.16;;;5.77;78.18
41234;BME280;26968;42.686;23.352;2024-03-08T00:20:35;95279.94;;;5.86;78.27
41234;BME280;26968;42.686;23.352;2024-03-08T00:23:01;95281.28;;;5.90;77.62
41234;BME280;26968;42.686;23.352;2024-03-08T00:25:26;95266.53;;;5.92;77.72
41234;BME280;26968;42.686;23.352;2024-03-08T00:27:52;95271.16;;;5.96;77.72
41234;BME280;26968;42.686;23.352;2024-03-08T00:30:22;95272.69;;;5.73;78.01
41234;BME280;26968;42.686;23.352;2024-03-08T00:32:48;95261.63;;;5.81;77.90
41234;BME280;26968;42.686;23.352;2024-03-08T00:35:14;95274.06;;;5.93;77.66
41234;BME280;26968;42.686;23.352;2024-03-08T00:37:40;95276.16;;;5.90;77.45
41234;BME280;26968;42.686;23.352;2024-03-08T00:40:07;95254.28;;;5.86;78.02
41234;BME280;26968;42.686;23.352;2024-03-08T00:42:34;95258.75;;;5.76;78.44
41234;BME280;26968;42.686;23.352;2024-03-08T00:45:00;95268.97;;;5.68;77.21
41234;BME280;26968;42.686;23.352;2024-03-08T00:47:26;95237.91;;;5.28;79.25
41234;BME280;26968;42.686;23.352;2024-03-08T00:49:52;95257.38;;;5.47;80.23
41234;BME280;26968;42.686;23.352;2024-03-08T00:52:18;95257.03;;;5.42;80.15
41234;BME280;26968;42.686;23.352;2024-03-08T00:54:44;95234.53;;;5.28;80.85
41234;BME280;26968;42.686;23.352;2024-03-08T00:57:10;95253.75;;;5.24;80.40
41234;BME280;26968;42.686;23.352;2024-03-08T00:59:38;95238.47;;;5.14;80.97
41234;BME280;26968;42.686;23.352;2024-03-08T01:02:03;95235.75;;;5.16;80.63
41234;BME280;26968;42.686;23.352;2024-03-08T01:04:29;95251.69;;;5.36;80.11
41234;BME280;26968;42.686;23.352;2024-03-08T01:06:58;95231.31;;;5.26;79.66
41234;BME280;26968;42.686;23.352;2024-03-08T01:09:24;95238.66;;;5.21;81.30
41234;BME280;26968;42.686;23.352;2024-03-08T01:11:50;95240.63;;;5.27;80.25
41234;BME280;26968;42.686;23.352;2024-03-08T01:14:16;95224.56;;;5.17;80.95
41234;BME280;26968;42.686;23.352;2024-03-08T01:16:41;95227.41;;;5.14;81.62
41234;BME280;26968;42.686;23.352;2024-03-08T01:19:07;95230.16;;;5.20;80.88
41234;BME280;26968;42.686;23.352;2024-03-08T01:21:33;95228.06;;;5.16;81.23
41234;BME280;26968;42.686;23.352;2024-03-08T01:23:58;95227.41;;;5.14;82.67
41234;BME280;26968;42.686;23.352;2024-03-08T01:26:24;95204.63;;;5.03;81.85
41234;BME280;26968;42.686;23.352;2024-03-08T01:28:49;95210.19;;;4.98;81.32
41234;BME280;26968;42.686;23.352;2024-03-08T01:31:15;95216.16;;;5.07;81.52
41234;BME280;26968;42.686;23.352;2024-03-08T01:33:41;95200.47;;;5.10;81.65
41234;BME280;26968;42.686;23.352;2024-03-08T01:36:07;95225.25;;;5.35;79.98
41234;BME280;26968;42.686;23.352;2024-03-08T01:38:32;95199.88;;;5.24;80.93
41234;BME280;26968;42.686;23.352;2024-03-08T01:40:58;95223.03;;;5.40;79.19
41234;BME280;26968;42.686;23.352;2024-03-08T01:43:28;95207.63;;;5.32;80.13
41234;BME280;26968;42.686;23.352;2024-03-08T01:45:55;95213.66;;;5.15;79.54
41234;BME280;26968;42.686;23.352;2024-03-08T01:48:23;95213.34;;;5.26;80.52
41234;BME280;26968;42.686;23.352;2024-03-08T01:50:49;95210.34;;;5.30;79.83
41234;BME280;26968;42.686;23.352;2024-03-08T01:53:15;95220.59;;;5.30;80.59
41234;BME280;26968;42.686;23.352;2024-03-08T01:55:47;95219.16;;;5.36;81.16
41234;BME280;26968;42.686;23.352;2024-03-08T01:58:13;95204.13;;;5.41;81.45
41234;BME280;26968;42.686;23.352;2024-03-08T02:00:44;95208.63;;;5.47;78.99
41234;BME280;26968;42.686;23.352;2024-03-08T02:03:10;95216.97;;;5.49;79.83
41234;BME280;26968;42.686;23.352;2024-03-08T02:05:36;95187.75;;;5.42;79.24
41234;BME280;26968;42.686;23.352;2024-03-08T02:08:04;95207.84;;;5.47;78.52
41234;BME280;26968;42.686;23.352;2024-03-08T02:10:33;95205.41;;;5.45;78.65
41234;BME280;26968;42.686;23.352;2024-03-08T02:13:01;95205.72;;;5.50;78.04
41234;BME280;26968;42.686;23.352;2024-03-08T02:15:51;95203.69;;;5.62;77.94
41234;BME280;26968;42.686;23.352;2024-03-08T02:18:16;95186.81;;;5.51;78.32
41234;BME280;26968;42.686;23.352;2024-03-08T02:20:49;95179.41;;;5.40;77.41
41234;BME280;26968;42.686;23.352;2024-03-08T02:23:15;95198.72;;;5.60;76.99
41234;BME280;26968;42.686;23.352;2024-03-08T02:25:40;95207.06;;;5.62;76.96
41234;BME280;26968;42.686;23.352;2024-03-08T02:28:10;95217.94;;;5.56;78.51
41234;BME280;26968;42.686;23.352;2024-03-08T02:30:36;95203.16;;;5.34;76.48
41234;BME280;26968;42.686;23.352;2024-03-08T02:33:02;95218.09;;;5.47;78.28
41234;BME280;26968;42.686;23.352;2024-03-08T02:35:27;95230.78;;;5.48;77.25
41234;BME280;26968;42.686;23.352;2024-03-08T02:37:53;95212.22;;;5.20;75.94
41234;BME280;26968;42.686;23.352;2024-03-08T02:40:18;95216.28;;;5.31;76.49
41234;BME280;26968;42.686;23.352;2024-03-08T02:42:44;95222.66;;;5.27;75.55
41234;BME280;26968;42.686;23.352;2024-03-08T02:45:09;95231.00;;;5.29;74.72
41234;BME280;26968;42.686;23.352;2024-03-08T02:47:35;95226.47;;;5.15;75.98
41234;BME280;26968;42.686;23.352;2024-03-08T02:50:01;95235.41;;;5.11;75.01
41234;BME280;26968;42.686;23.352;2024-03-08T02:52:27;95222.66;;;5.27;75.06
41234;BME280;26968;42.686;23.352;2024-03-08T02:54:52;95197.69;;;4.95;73.27
41234;BME280;26968;42.686;23.352;2024-03-08T02:57:18;95230.25;;;5.03;73.23
41234;BME280;26968;42.686;23.352;2024-03-08T02:59:44;95224.50;;;5.09;73.70
41234;BME280;26968;42.686;23.352;2024-03-08T03:02:11;95230.06;;;5.04;75.85
41234;BME280;26968;42.686;23.352;2024-03-08T03:04:39;95223.84;;;5.07;72.71
41234;BME280;26968;42.686;23.352;2024-03-08T03:07:05;95225.50;;;5.16;73.79
41234;BME280;26968;42.686;23.352;2024-03-08T03:09:30;95217.50;;;5.19;72.65
41234;BME280;26968;42.686;23.352;2024-03-08T03:11:58;95210.03;;;5.00;72.04
41234;BME280;26968;42.686;23.352;2024-03-08T03:14:24;95213.50;;;4.90;72.25
41234;BME280;26968;42.686;23.352;2024-03-08T03:16:52;95213.22;;;4.68;73.47
41234;BME280;26968;42.686;23.352;2024-03-08T03:19:17;95237.19;;;4.84;73.02
41234;BME280;26968;42.686;23.352;2024-03-08T03:21:43;95243.81;;;4.95;73.71
41234;BME280;26968;42.686;23.352;2024-03-08T03:24:09;95245.59;;;4.94;72.35
41234;BME280;26968;42.686;23.352;2024-03-08T03:26:38;95251.00;;;4.91;73.23
41234;BME280;26968;42.686;23.352;2024-03-08T03:29:07;95251.00;;;4.91;72.37
41234;BME280;26968;42.686;23.352;2024-03-08T03:31:36;95245.44;;;4.96;73.45
41234;BME280;26968;42.686;23.352;2024-03-08T03:34:02;95223.03;;;4.72;71.38
41234;BME280;26968;42.686;23.352;2024-03-08T03:36:29;95230.56;;;4.74;71.94
41234;BME280;26968;42.686;23.352;2024-03-08T03:38:55;95243.97;;;4.68;72.65
41234;BME280;26968;42.686;23.352;2024-03-08T03:41:36;95239.69;;;4.76;72.74
41234;BME280;26968;42.686;23.352;2024-03-08T03:44:01;95259.06;;;4.97;73.68
41234;BME280;26968;42.686;23.352;2024-03-08T03:46:27;95253.63;;;5.00;73.59
41234;BME280;26968;42.686;23.352;2024-03-08T03:48:54;95228.06;;;4.82;73.12
41234;BME280;26968;42.686;23.352;2024-03-08T03:51:20;95232.53;;;4.80;73.08
41234;BME280;26968;42.686;23.352;2024-03-08T03:53:46;95258.50;;;5.11;72.70
41234;BME280;26968;42.686;23.352;2024-03-08T03:56:12;95263.41;;;5.04;71.59
41234;BME280;26968;42.686;23.352;2024-03-08T03:58:38;95257.94;;;4.99;74.74
41234;BME280;26968;42.686;23.352;2024-03-08T04:01:05;95273.47;;;4.98;73.77
41234;BME280;26968;42.686;23.352;2024-03-08T04:03:30;95278.97;;;5.03;72.64
41234;BME280;26968;42.686;23.352;2024-03-08T04:05:56;95271.19;;;4.86;74.46
41234;BME280;26968;42.686;23.352;2024-03-08T04:08:22;95266.38;;;4.66;73.09
41234;BME280;26968;42.686;23.352;2024-03-08T04:10:50;95263.63;;;4.85;71.72
41234;BME280;26968;42.686;23.352;2024-03-08T04:13:16;95277.59;;;4.90;72.37
41234;BME280;26968;42.686;23.352;2024-03-08T04:15:41;95284.03;;;4.94;72.41
41234;BME280;26968;42.686;23.352;2024-03-08T04:18:09;95275.91;;;4.73;72.68
41234;BME280;26968;42.686;23.352;2024-03-08T04:20:35;95280.13;;;4.82;73.53
41234;BME280;26968;42.686;23.352;2024-03-08T04:23:02;95299.63;;;5.01;73.60
41234;BME280;26968;42.686;23.352;2024-03-08T04:25:27;95297.66;;;4.69;71.85
41234;BME280;26968;42.686;23.352;2024-03-08T04:27:53;95294.44;;;4.67;74.64
41234;BME280;26968;42.686;23.352;2024-03-08T04:30:18;95301.34;;;4.75;73.72
41234;BME280;26968;42.686;23.352;2024-03-08T04:32:46;95294.78;;;4.72;72.40
41234;BME280;26968;42.686;23.352;2024-03-08T04:35:12;95308.69;;;4.87;74.98
41234;BME280;26968;42.686;23.352;2024-03-08T04:37:38;95286.19;;;4.38;73.49
41234;BME280;26968;42.686;23.352;2024-03-08T04:40:03;95306.53;;;4.21;73.91
41234;BME280;26968;42.686;23.352;2024-03-08T04:42:30;95301.97;;;4.15;74.65
41234;BME280;26968;42.686;23.352;2024-03-08T04:44:58;95310.63;;;4.14;75.48
41234;BME280;26968;42.686;23.352;2024-03-08T04:47:23;95299.38;;;4.25;76.00
41234;BME280;26968;42.686;23.352;2024-03-08T04:49:50;95303.31;;;4.37;75.79
41234;BME280;26968;42.686;23.352;2024-03-08T04:52:15;95312.53;;;4.48;76.24
41234;BME280;26968;42.686;23.352;2024-03-08T04:54:41;95310.69;;;4.58;75.79
41234;BME280;26968;42.686;23.352;2024-03-08T04:57:07;95320.84;;;4.68;76.47
41234;BME280;26968;42.686;23.352;2024-03-08T04:59:32;95275.03;;;4.47;76.77
41234;BME280;26968;42.686;23.352;2024-03-08T05:01:58;95321.41;;;4.79;76.94
41234;BME280;26968;42.686;23.352;2024-03-08T05:04:24;95324.63;;;4.81;76.69
41234;BME280;26968;42.686;23.352;2024-03-08T05:06:49;95320.47;;;4.80;77.06
41234;BME280;26968;42.686;23.352;2024-03-08T05:09:15;95318.72;;;4.63;75.95
41234;BME280;26968;42.686;23.352;2024-03-08T05:11:44;95326.97;;;4.75;77.12
41234;BME280;26968;42.686;23.352;2024-03-08T05:14:13;95330.44;;;4.83;77.17
41234;BME280;26968;42.686;23.352;2024-03-08T05:16:44;95327.88;;;4.83;77.77
41234;BME280;26968;42.686;23.352;2024-03-08T05:19:16;95329.22;;;4.95;77.03
41234;BME280;26968;42.686;23.352;2024-03-08T05:21:46;95332.50;;;5.06;77.38
41234;BME280;26968;42.686;23.352;2024-03-08T05:24:13;95322.38;;;5.04;77.46
41234;BME280;26968;42.686;23.352;2024-03-08T05:26:39;95341.50;;;5.10;75.88
41234;BME280;26968;42.686;23.352;2024-03-08T05:29:05;95335.06;;;5.06;77.43
41234;BME280;26968;42.686;23.352;2024-03-08T05:31:38;95326.72;;;5.04;75.42
41234;BME280;26968;42.686;23.352;2024-03-08T05:34:08;95359.16;;;5.13;75.68
41234;BME280;26968;42.686;23.352;2024-03-08T05:36:35;95360.75;;;5.14;77.46
41234;BME280;26968;42.686;23.352;2024-03-08T05:39:01;95361.75;;;5.21;75.89
41234;BME280;26968;42.686;23.352;2024-03-08T05:41:26;95356.44;;;5.14;74.56
41234;BME280;26968;42.686;23.352;2024-03-08T05:43:51;95368.56;;;5.30;74.88
41234;BME280;26968;42.686;23.352;2024-03-08T05:46:17;95379.53;;;5.14;74.00
41234;BME280;26968;42.686;23.352;2024-03-08T05:48:43;95376.81;;;5.16;75.04
41234;BME280;26968;42.686;23.352;2024-03-08T05:51:09;95373.16;;;5.18;74.34
41234;BME280;26968;42.686;23.352;2024-03-08T05:53:35;95389.78;;;5.14;74.51
41234;BME280;26968;42.686;23.352;2024-03-08T05:56:00;95395.56;;;5.16;76.26
41234;BME280;26968;42.686;23.352;2024-03-08T05:58:27;95350.75;;;5.03;75.55
41234;BME280;26968;42.686;23.352;2024-03-08T06:00:55;95388.31;;;5.12;76.11
41234;BME280;26968;42.686;23.352;2024-03-08T06:03:21;95396.84;;;5.20;76.64
41234;BME280;26968;42.686;23.352;2024-03-08T06:05:49;95390.72;;;5.13;75.66
41234;BME280;26968;42.686;23.352;2024-03-08T06:08:16;95414.22;;;5.26;73.13
41234;BME280;26968;42.686;23.352;2024-03-08T06:10:41;95402.50;;;5.24;73.29
41234;BME280;26968;42.686;23.352;2024-03-08T06:13:07;95411.69;;;5.09;73.32
41234;BME280;26968;42.686;23.352;2024-03-08T06:15:33;95402.09;;;4.93;73.69
41234;BME280;26968;42.686;23.352;2024-03-08T06:18:00;95413.16;;;4.93;73.86
41234;BME280;26968;42.686;23.352;2024-03-08T06:20:25;95395.44;;;4.82;73.75
41234;BME280;26968;42.686;23.352;2024-03-08T06:22:51;95371.69;;;4.72;74.98
41234;BME280;26968;42.686;23.352;2024-03-08T06:25:17;95404.22;;;4.98;73.52
41234;BME280;26968;42.686;23.352;2024-03-08T06:27:43;95408.78;;;5.04;74.48
41234;BME280;26968;42.686;23.352;2024-03-08T06:30:10;95412.88;;;4.97;74.04
41234;BME280;26968;42.686;23.352;2024-03-08T06:32:36;95420.03;;;5.11;74.38
41234;BME280;26968;42.686;23.352;2024-03-08T06:35:03;95425.75;;;5.05;72.92
41234;BME280;26968;42.686;23.352;2024-03-08T06:37:34;95427.31;;;4.98;74.74
41234;BME280;26968;42.686;23.352;2024-03-08T06:40:00;95418.16;;;4.95;73.80
41234;BME280;26968;42.686;23.352;2024-03-08T06:42:27;95391.41;;;4.98;75.54
41234;BME280;26968;42.686;23.352;2024-03-08T06:44:53;95416.78;;;5.26;73.76
41234;BME280;26968;42.686;23.352;2024-03-08T06:47:21;95424.88;;;5.14;73.47
41234;BME280;26968;42.686;23.352;2024-03-08T06:49:46;95423.56;;;5.10;71.58
41234;BME280;26968;42.686;23.352;2024-03-08T06:52:12;95423.97;;;5.23;73.29
41234;BME280;26968;42.686;23.352;2024-03-08T06:54:37;95438.47;;;5.32;71.91
41234;BME280;26968;42.686;23.352;2024-03-08T06:57:06;95436.91;;;5.39;73.31
41234;BME280;26968;42.686;23.352;2024-03-08T06:59:32;95426.56;;;5.49;71.81
41234;BME280;26968;42.686;23.352;2024-03-08T07:01:57;95439.16;;;5.34;71.45
41234;BME280;26968;42.686;23.352;2024-03-08T07:04:25;95426.75;;;5.29;72.30
41234;BME280;26968;42.686;23.352;2024-03-08T07:06:54;95440.66;;;5.45;73.58
41234;BME280;26968;42.686;23.352;2024-03-08T07:09:19;95408.00;;;5.29;72.58
41234;BME280;26968;42.686;23.352;2024-03-08T07:11:45;95430.94;;;5.56;70.29
41234;BME280;26968;42.686;23.352;2024-03-08T07:14:12;95442.09;;;5.73;71.74
41234;BME280;26968;42.686;23.352;2024-03-08T07:16:40;95424.44;;;5.70;nan
41234;BME280;26968;42.686;23.352;2024-03-08T07:19:06;95420.78;;;5.73;70.40
41234;BME280;26968;42.686;23.352;2024-03-08T07:21:32;95417.59;;;5.79;70.87
41234;BME280;26968;42.686;23.352;2024-03-08T07:23:57;95419.03;;;5.81;69.69
41234;BME280;26968;42.686;23.352;2024-03-08T07:26:28;95450.31;;;6.03;70.68
41234;BME280;26968;42.686;23.352;2024-03-08T07:28:55;95460.19;;;5.89;70.42
41234;BME280;26968;42.686;23.352;2024-03-08T07:31:21;95450.47;;;6.01;70.22
41234;BME280;26968;42.686;23.352;2024-03-08T07:34:02;95458.81;;;6.03;70.64
41234;BME280;26968;42.686;23.352;2024-03-08T07:36:28;95457.66;;;5.97;69.79
41234;BME280;26968;42.686;23.352;2024-03-08T07:38:54;95417.19;;;5.65;70.72
41234;BME280;26968;42.686;23.352;2024-03-08T07:41:19;95427.41;;;5.57;70.43
41234;BME280;26968;42.686;23.352;2024-03-08T07:43:45;95435.22;;;5.74;71.91
41234;BME280;26968;42.686;23.352;2024-03-08T07:46:10;95436.75;;;5.66;70.71
41234;BME280;26968;42.686;23.352;2024-03-08T07:48:36;95462.78;;;5.72;71.27
41234;BME280;26968;42.686;23.352;2024-03-08T07:51:02;95452.53;;;5.72;72.94
41234;BME280;26968;42.686;23.352;2024-03-08T07:53:31;95453.75;;;5.59;71.78
41234;BME280;26968;42.686;23.352;2024-03-08T07:55:56;95451.94;;;5.78;70.91
41234;BME280;26968;42.686;23.352;2024-03-08T07:58:21;95434.19;;;5.66;70.21
41234;BME280;26968;42.686;23.352;2024-03-08T08:00:47;95455.75;;;5.74;70.62
41234;BME280;26968;42.686;23.352;2024-03-08T08:03:12;95464.84;;;5.68;71.63
41234;BME280;26968;42.686;23.352;2024-03-08T08:05:38;95454.53;;;5.60;71.68
41234;BME280;26968;42.686;23.352;2024-03-08T08:08:07;95449.13;;;5.63;69.57
41234;BME280;26968;42.686;23.352;2024-03-08T08:10:33;95452.16;;;5.66;70.82
41234;BME280;26968;42.686;23.352;2024-03-08T08:12:58;95462.69;;;5.81;71.08
41234;BME280;26968;42.686;23.352;2024-03-08T08:15:24;95446.25;;;5.92;68.97
41234;BME280;26968;42.686;23.352;2024-03-08T08:17:50;95446.47;;;5.81;68.79
41234;BME280;26968;42.686;23.352;2024-03-08T08:20:17;95436.16;;;5.98;71.15
41234;BME280;26968;42.686;23.352;2024-03-08T08:22:43;95434.53;;;5.89;67.79
41234;BME280;26968;42.686;23.352;2024-03-08T08:25:09;95430.38;;;5.71;66.82
41234;BME280;26968;42.686;23.352;2024-03-08T08:27:38;95428.09;;;5.68;67.00
41234;BME280;26968;42.686;23.352;2024-03-08T08:30:05;95442.75;;;5.93;69.10
41234;BME280;26968;42.686;23.352;2024-03-08T08:32:36;95456.03;;;6.22;68.21
41234;BME280;26968;42.686;23.352;2024-03-08T08:35:06;95441.53;;;6.13;66.74
41234;BME280;26968;42.686;23.352;2024-03-08T08:37:38;95430.84;;;5.92;64.77
41234;BME280;26968;42.686;23.352;2024-03-08T08:40:07;95444.00;;;6.23;67.09
41234;BME280;26968;42.686;23.352;2024-03-08T08:42:40;95444.50;;;6.34;66.75
41234;BME280;26968;42.686;23.352;2024-03-08T08:45:06;95437.97;;;6.48;65.89
41234;BME280;26968;42.686;23.352;2024-03-08T08:47:37;95449.06;;;6.49;64.25
41234;BME280;26968;42.686;23.352;2024-03-08T08:50:04;95331.13;;;5.79;64.19
41234;BME280;26968;42.686;23.352;2024-03-08T08:52:31;95440.09;;;6.61;64.55
41234;BME280;26968;42.686;23.352;2024-03-08T08:54:57;95441.06;;;6.76;63.31
41234;BME280;26968;42.686;23.352;2024-03-08T08:57:22;95402.19;;;6.79;64.38
41234;BME280;26968;42.686;23.352;2024-03-08T08:59:48;95428.53;;;6.73;63.69
41234;BME280;26968;42.686;23.352;2024-03-08T09:02:13;95416.00;;;6.78;65.82
41234;BME280;26968;42.686;23.352;2024-03-08T09:04:39;95429.97;;;6.76;62.65
41234;BME280;26968;42.686;23.352;2024-03-08T09:07:05;95418.59;;;6.94;63.05
41234;BME280;26968;42.686;23.352;2024-03-08T09:09:32;95434.69;;;7.04;63.28
41234;BME280;26968;42.686;23.352;2024-03-08T09:11:57;95428.44;;;7.15;63.48
41234;BME280;26968;42.686;23.352;2024-03-08T09:14:23;95411.22;;;7.07;65.09
41234;BME280;26968;42.686;23.352;2024-03-08T09:16:49;95433.72;;;7.05;62.33
41234;BME280;26968;42.686;23.352;2024-03-08T09:19:15;95423.59;;;6.96;64.40
41234;BME280;26968;42.686;23.352;2024-03-08T09:21:40;95407.69;;;6.84;64.45
41234;BME280;26968;42.686;23.352;2024-03-08T09:24:06;95425.03;;;7.06;63.69
41234;BME280;26968;42.686;23.352;2024-03-08T09:26:32;95416.47;;;6.74;63.00
41234;BME280;26968;42.686;23.352;2024-03-08T09:28:59;95432.59;;;7.08;65.10
41234;BME280;26968;42.686;23.352;2024-03-08T09:31:25;95428.75;;;7.28;65.37
41234;BME280;26968;42.686;23.352;2024-03-08T09:33:51;95428.25;;;7.57;62.62
41234;BME280;26968;42.686;23.352;2024-03-08T09:36:17;95423.53;;;7.69;61.05
41234;BME280;26968;42.686;23.352;2024-03-08T09:38:42;95427.88;;;7.76;62.96
41234;BME280;26968;42.686;23.352;2024-03-08T09:41:07;95411.97;;;7.57;60.71
41234;BME280;26968;42.686;23.352;2024-03-08T09:43:35;95426.31;;;7.51;61.87
41234;BME280;26968;42.686;23.352;2024-03-08T09:46:00;95428.34;;;7.88;58.92
41234;BME280;26968;42.686;23.352;2024-03-08T09:48:26;95412.91;;;7.72;59.17
41234;BME280;26968;42.686;23.352;2024-03-08T09:50:52;95430.44;;;7.85;58.44
41234;BME280;26968;42.686;23.352;2024-03-08T09:53:19;95429.63;;;7.92;57.81
41234;BME280;26968;42.686;23.352;2024-03-08T09:55:44;95426.03;;;8.09;57.29
41234;BME280;26968;42.686;23.352;2024-03-08T09:58:14;95427.16;;;8.07;61.04
41234;BME280;26968;42.686;23.352;2024-03-08T10:00:58;95416.81;;;8.15;55.45
41234;BME280;26968;42.686;23.352;2024-03-08T10:03:27;95414.72;;;8.10;58.28
41234;BME280;26968;42.686;23.352;2024-03-08T10:05:52;95426.25;;;8.31;56.80
41234;BME280;26968;42.686;23.352;2024-03-08T10:08:21;95428.41;;;8.19;58.07
41234;BME280;26968;42.686;23.352;2024-03-08T10:10:47;95436.50;;;8.08;57.44
41234;BME280;26968;42.686;23.352;2024-03-08T10:13:13;95432.19;;;8.31;59.65
41234;BME280;26968;42.686;23.352;2024-03-08T10:15:39;95434.97;;;8.69;57.28
41234;BME280;26968;42.686;23.352;2024-03-08T10:18:07;95423.81;;;8.99;58.56
41234;BME280;26968;42.686;23.352;2024-03-08T10:20:33;95425.91;;;9.18;53.47
41234;BME280;26968;42.686;23.352;2024-03-08T10:23:04;95426.03;;;9.25;55.57
41234;BME280;26968;42.686;23.352;2024-03-08T10:25:32;95416.22;;;9.58;54.22
41234;BME280;26968;42.686;23.352;2024-03-08T10:27:59;95417.84;;;10.47;57.00
41234;BME280;26968;42.686;23.352;2024-03-08T10:30:25;95401.88;;;11.22;54.61
41234;BME280;26968;42.686;23.352;2024-03-08T10:32:50;95405.81;;;12.37;47.98
41234;BME280;26968;42.686;23.352;2024-03-08T10:35:17;95387.69;;;12.43;47.16
41234;BME280;26968;42.686;23.352;2024-03-08T10:37:51;95401.28;;;12.04;47.36
41234;BME280;26968;42.686;23.352;2024-03-08T10:40:31;95403.94;;;11.34;44.40
41234;BME280;26968;42.686;23.352;2024-03-08T10:42:59;95374.63;;;11.05;45.28
41234;BME280;26968;42.686;23.352;2024-03-08T10:45:38;95393.22;;;10.73;48.54
41234;BME280;26968;42.686;23.352;2024-03-08T10:50:41;95397.50;;;10.44;50.49
41234;BME280;26968;42.686;23.352;2024-03-08T10:53:11;95392.66;;;10.56;48.25
41234;BME280;26968;42.686;23.352;2024-03-08T10:55:40;95394.28;;;10.78;47.61
41234;BME280;26968;42.686;23.352;2024-03-08T10:58:06;95393.06;;;10.38;48.23
41234;BME280;26968;42.686;23.352;2024-03-08T11:00:36;95385.69;;;9.76;49.15
41234;BME280;26968;42.686;23.352;2024-03-08T11:03:03;95380.75;;;10.26;50.75
41234;BME280;26968;42.686;23.352;2024-03-08T11:05:38;95396.22;;;10.55;47.34
41234;BME280;26968;42.686;23.352;2024-03-08T11:08:16;95387.38;;;10.28;49.69
41234;BME280;26968;42.686;23.352;2024-03-08T11:10:54;95380.97;;;10.60;47.84
41234;BME280;26968;42.686;23.352;2024-03-08T11:13:37;95373.13;;;9.73;48.96
41234;BME280;26968;42.686;23.352;2024-03-08T11:19:05;95383.09;;;9.47;50.30
41234;BME280;26968;42.686;23.352;2024-03-08T11:21:32;95389.25;;;9.61;50.33
41234;BME280;26968;42.686;23.352;2024-03-08T11:24:16;95377.69;;;10.51;47.78
41234;BME280;26968;42.686;23.352;2024-03-08T11:26:45;95355.34;;;11.63;47.89
41234;BME280;26968;42.686;23.352;2024-03-08T11:29:32;95361.22;;;12.67;45.22
41234;BME280;26968;42.686;23.352;2024-03-08T11:32:14;95350.47;;;12.97;41.08
41234;BME280;26968;42.686;23.352;2024-03-08T11:34:46;95343.50;;;14.21;40.60
41234;BME280;26968;42.686;23.352;2024-03-08T11:37:14;95347.38;;;14.95;37.88
41234;BME280;26968;42.686;23.352;2024-03-08T11:39:45;95343.81;;;15.64;35.34
41234;BME280;26968;42.686;23.352;2024-03-08T11:42:11;95330.81;;;15.82;34.45
41234;BME280;26968;42.686;23.352;2024-03-08T11:44:37;95338.97;;;15.18;33.65
41234;BME280;26968;42.686;23.352;2024-03-08T11:47:09;95337.75;;;15.20;37.03
41234;BME280;26968;42.686;23.352;2024-03-08T11:49:36;95350.63;;;15.65;35.11
41234;BME280;26968;42.686;23.352;2024-03-08T11:52:01;95356.31;;;15.80;36.41
41234;BME280;26968;42.686;23.352;2024-03-08T11:54:28;95343.09;;;15.57;32.85
41234;BME280;26968;42.686;23.352;2024-03-08T11:56:58;95348.19;;;15.20;34.20
41234;BME280;26968;42.686;23.352;2024-03-08T11:59:28;95351.28;;;14.79;36.33
41234;BME280;26968;42.686;23.352;2024-03-08T12:02:03;95354.69;;;14.35;37.26
41234;BME280;26968;42.686;23.352;2024-03-08T12:04:32;95330.34;;;14.09;36.31
41234;BME280;26968;42.686;23.352;2024-03-08T12:07:00;95330.66;;;14.77;35.18
41234;BME280;26968;42.686;23.352;2024-03-08T12:09:27;95349.41;;;14.55;33.76
41234;BME280;26968;42.686;23.352;2024-03-08T12:11:53;95348.81;;;14.91;34.56
41234;BME280;26968;42.686;23.352;2024-03-08T12:14:18;95337.19;;;14.87;33.39
41234;BME280;26968;42.686;23.352;2024-03-08T12:16:44;95337.25;;;14.42;34.83
41234;BME280;26968;42.686;23.352;2024-03-08T12:19:10;95335.00;;;14.52;33.95
41234;BME280;26968;42.686;23.352;2024-03-08T12:21:36;95329.94;;;14.95;34.47
41234;BME280;26968;42.686;23.352;2024-03-08T12:26:28;95337.97;;;15.43;33.41
41234;BME280;26968;42.686;23.352;2024-03-08T12:28:53;95342.13;;;15.26;34.38
41234;BME280;26968;42.686;23.352;2024-03-08T12:31:19;95343.16;;;15.43;33.08
41234;BME280;26968;42.686;23.352;2024-03-08T12:33:55;95342.81;;;15.15;34.40
41234;BME280;26968;42.686;23.352;2024-03-08T12:36:24;95338.78;;;14.56;35.76
41234;BME280;26968;42.686;23.352;2024-03-08T12:38:51;95315.84;;;14.33;36.15
41234;BME280;26968;42.686;23.352;2024-03-08T12:41:17;95339.66;;;14.82;35.90
41234;BME280;26968;42.686;23.352;2024-03-08T12:43:44;95338.72;;;15.51;34.44
41234;BME280;26968;42.686;23.352;2024-03-08T12:48:41;95326.91;;;14.22;35.63
41234;BME280;26968;42.686;23.352;2024-03-08T12:51:21;95322.13;;;14.13;35.51
41234;BME280;26968;42.686;23.352;2024-03-08T12:53:47;95316.94;;;13.42;37.23
41234;BME280;26968;42.686;23.352;2024-03-08T12:56:14;95327.16;;;14.07;36.93
41234;BME280;26968;42.686;23.352;2024-03-08T12:58:43;95312.41;;;14.46;36.19
41234;BME280;26968;42.686;23.352;2024-03-08T13:01:08;95326.44;;;14.45;35.05
41234;BME280;26968;42.686;23.352;2024-03-08T13:03:34;95298.09;;;14.62;34.07
41234;BME280;26968;42.686;23.352;2024-03-08T13:06:04;95310.44;;;15.47;32.87
41234;BME280;26968;42.686;23.352;2024-03-08T13:08:37;95329.06;;;15.94;33.42